General Aviation Weather

Text Reports

Enter one or more of the following location identifiers separated by a space:

Zip Code, Four-Character ICAO or Three-Character IATA airport codes.

METAR - Aviation Routine Weather Report
KY19 - Mandan, North Dakota
Updated at 6:15 PM GMT on October 25, 2014 (1:15 PM CDT):
METAR KY19 251815Z AUTO 13007KT 10SM CLR 14/00 A3014 RMK AO2
TAF - Terminal Area Forecast
KY19 - Mandan, North Dakota
Updated at 6:15 PM GMT on October 25, 2014 (1:15 PM CDT):
No TAF is currently available for this location.
Decoded:
No decoded TAF is available.
PIREP - Pilot Weather Report
KY19 - Mandan, North Dakota
Updated at 6:15 PM GMT on October 25, 2014 (1:15 PM CDT):
No PIREP is currently available for this location.
AIRMET - Airmens Meteorological Information
KY19 - Mandan, North Dakota
Updated at 6:15 PM GMT on October 25, 2014 (1:15 PM CDT):
No AIRMET is currently available for this location.
SIGMET - Significant Meteorological Information
KY19 - Mandan, North Dakota
Updated at 6:15 PM GMT on October 25, 2014 (1:15 PM CDT):
No SIGMET is currently available for this location.
NOTAM - Notice to Airmen
KY19 - Mandan, North Dakota
Updated at 6:15 PM GMT on October 25, 2014 (1:15 PM CDT):
No NOTAM is currently available for this location.
Forecast Area
KY19 - Mandan, North Dakota
Updated at 6:15 PM GMT on October 25, 2014 (1:15 PM CDT):
No NOTAM is currently available for this location.
Aviation Weather Maps